Terminal Aerodrome Forecast
Issued by NWS

Home | Current Version | Previous Version | Text Only | Print | Product List | Glossary On
Versions: 1 2 3 4 5 6 7 8 9 10 11 12 13 14 15 16 17 18 19 20 21 22 23
000
FTUS46 KSEW 231500 AAA
TAFSEA
TAF AMD
KSEA 231501Z 2315/2418 VRB03KT P6SM SCT250
     FM231700 29005KT P6SM SCT250
     FM232100 31007KT P6SM SCT250
     FM241100 23006KT P6SM SCT250=

USA.gov is the U.S. government's official web portal to all federal, state and local government web resources and services.